Guatrache, Argentina
Current Conditions -  °F | °C
As of 8:00 PM on Wednesday 17 Dec 2014 (Local Time) from SAZN Reporting Station
Clear Clear  
Wind Chill: 84°   Ceiling: Unl
Heat Index: 84°   Visibility: 6mi
Dew Point: 36°   Wind: 5mph
Humidity: 18%   Direction: 230°SW
Pressure: 29.88"   Gusts: NA
Location:  37.67°S, 63.53°W
Report Text: SAZN 172300Z 23004KT CAVOK 29/02 Q1012
Loading
Personal Weather Stations






























Interactive Weather Map New forecast layout! Learn more

10-Day Weather Forecast

Advertisements
Track Severe Weather on mobile